Time;durP1;ratioP1;P1;durP2;ratioP2;P2;SDS_P1;SDS_P2;PMS_P1;PMS_P2;Temp;Humidity;BMP_temperature;BMP_pressure;BME280_temperature;BME280_humidity;BME280_pressure;Samples;Min_cycle;Max_cycle;Signal;HPM_P1;HPM_P2
2021/09/25 00:02:17;;;;;;;17.17;12.02;;;;;;;10.51;100.00;96047.31;5010257;28;24475;-74
2021/09/25 00:04:43;;;;;;;15.52;11.40;;;;;;;10.56;100.00;96054.81;5009889;28;24954;-74
2021/09/25 00:07:10;;;;;;;15.93;9.53;;;;;;;10.54;100.00;96056.66;5010534;28;24474;-75
2021/09/25 00:09:40;;;;;;;10.50;7.85;;;;;;;10.57;99.04;96053.91;5013920;28;24427;-74
2021/09/25 00:12:07;;;;;;;10.00;7.18;;;;;;;10.43;97.97;96043.50;5014048;28;24810;-74
2021/09/25 00:14:35;;;;;;;8.95;6.72;;;;;;;10.26;98.22;96037.53;5013932;28;24424;-74
2021/09/25 00:17:02;;;;;;;7.53;6.25;;;;;;;10.31;96.69;96045.88;5014277;28;24435;-75
2021/09/25 00:19:28;;;;;;;8.73;6.88;;;;;;;10.38;96.47;96039.44;5014062;28;25023;-75
2021/09/25 00:21:56;;;;;;;10.93;6.57;;;;;;;10.33;97.53;96043.19;5013995;28;24449;-76
2021/09/25 00:24:23;;;;;;;9.47;7.30;;;;;;;10.14;98.84;96045.97;5013638;28;24455;-74
2021/09/25 00:26:49;;;;;;;9.80;6.28;;;;;;;9.97;100.00;96046.06;5013836;28;24502;-75
2021/09/25 00:29:16;;;;;;;8.90;6.68;;;;;;;9.95;100.00;96043.59;5014092;28;24416;-75
2021/09/25 00:31:44;;;;;;;7.97;6.53;;;;;;;9.97;100.00;96049.50;5014008;28;24833;-75
2021/09/25 00:34:11;;;;;;;10.38;6.65;;;;;;;10.04;100.00;96050.00;5013739;28;24957;-75
2021/09/25 00:36:37;;;;;;;7.63;5.95;;;;;;;10.02;100.00;96044.91;5013885;28;24416;-75
2021/09/25 00:39:04;;;;;;;7.78;6.00;;;;;;;10.02;100.00;96044.91;5013520;28;24447;-73
2021/09/25 00:41:30;;;;;;;7.53;5.07;;;;;;;10.06;100.00;96043.00;5013642;28;24424;-73
2021/09/25 00:43:57;;;;;;;10.90;4.65;;;;;;;10.14;100.00;96040.78;5013702;28;24467;-73
2021/09/25 00:46:24;;;;;;;7.20;4.60;;;;;;;10.16;100.00;96044.97;5013315;28;24490;-73
2021/09/25 00:48:52;;;;;;;9.70;6.60;;;;;;;10.18;100.00;96039.69;5013448;28;24417;-73
2021/09/25 00:51:18;;;;;;;9.25;7.03;;;;;;;10.14;96.74;96044.22;5013196;28;24420;-75
2021/09/25 00:53:45;;;;;;;9.65;6.50;;;;;;;10.24;95.95;96035.94;5013258;28;24416;-73
2021/09/25 00:56:12;;;;;;;7.68;6.00;;;;;;;9.95;100.00;96035.81;5013220;28;24474;-73
2021/09/25 00:58:41;;;;;;;8.65;6.32;;;;;;;10.01;98.13;96042.38;5013427;28;24412;-73
2021/09/25 01:01:07;;;;;;;7.05;6.35;;;;;;;9.90;100.00;96040.41;5013211;28;25012;-74
2021/09/25 01:03:34;;;;;;;7.53;6.35;;;;;;;9.80;100.00;96041.84;5013054;28;24448;-74
2021/09/25 01:06:02;;;;;;;8.03;6.43;;;;;;;9.81;99.78;96038.34;5012660;28;24924;-74
2021/09/25 01:08:29;;;;;;;9.30;6.85;;;;;;;9.73;100.00;96038.75;5013404;28;24790;-74
2021/09/25 01:10:56;;;;;;;6.60;5.90;;;;;;;9.69;100.00;96040.69;5013028;28;24987;-75
2021/09/25 01:13:23;;;;;;;8.07;6.82;;;;;;;9.74;100.00;96050.78;5012991;28;24456;-74
2021/09/25 01:15:50;;;;;;;10.18;6.60;;;;;;;9.76;100.00;96051.53;5012779;28;24419;-74
2021/09/25 01:18:17;;;;;;;7.37;5.73;;;;;;;9.78;100.00;96044.50;5013054;28;24511;-73
2021/09/25 01:20:43;;;;;;;6.65;4.80;;;;;;;9.68;100.00;96048.53;5011489;28;24429;-73
2021/09/25 01:23:11;;;;;;;5.07;4.57;;;;;;;9.64;100.00;96044.44;5012858;28;24431;-73
2021/09/25 01:25:38;;;;;;;8.60;4.60;;;;;;;9.71;100.00;96050.94;5012410;28;24495;-73
2021/09/25 01:28:05;;;;;;;5.40;4.65;;;;;;;9.79;100.00;96059.13;5013118;28;24439;-73
2021/09/25 01:30:31;;;;;;;4.43;4.03;;;;;;;9.82;100.00;96056.34;5012732;28;24782;-73
2021/09/25 01:33:00;;;;;;;4.82;4.38;;;;;;;9.84;100.00;96051.09;5012648;28;24429;-73
2021/09/25 01:35:27;;;;;;;7.50;6.13;;;;;;;9.78;100.00;96054.03;5012687;28;20747;-73
2021/09/25 01:37:55;;;;;;;6.63;5.38;;;;;;;9.73;100.00;96056.88;5012644;28;24425;-73
2021/09/25 01:40:23;;;;;;;8.80;5.65;;;;;;;9.70;100.00;96052.69;5012778;28;24523;-73
2021/09/25 01:42:49;;;;;;;6.50;5.27;;;;;;;9.73;100.00;96054.28;5012504;28;24435;-73
2021/09/25 01:45:16;;;;;;;6.78;4.72;;;;;;;9.66;100.00;96047.78;5012341;28;24428;-73
2021/09/25 01:47:42;;;;;;;6.85;4.63;;;;;;;9.52;100.00;96040.75;5012329;28;24968;-73
2021/09/25 01:50:12;;;;;;;4.72;4.25;;;;;;;9.72;100.00;96039.69;5012478;28;24486;-75
2021/09/25 01:52:38;;;;;;;8.90;4.80;;;;;;;9.72;95.93;96033.69;5012464;28;20820;-75
2021/09/25 01:55:06;;;;;;;6.07;4.88;;;;;;;9.47;97.50;96042.78;5012047;28;24416;-76
2021/09/25 01:57:34;;;;;;;4.83;4.33;;;;;;;9.38;96.98;96046.69;5012312;28;21280;-76
2021/09/25 02:00:00;;;;;;;7.85;4.47;;;;;;;9.19;98.91;96036.47;5012088;28;25096;-75
2021/09/25 02:02:27;;;;;;;5.20;4.30;;;;;;;9.18;100.00;96037.41;5011709;28;24463;-75
2021/09/25 02:04:53;;;;;;;5.33;4.23;;;;;;;9.23;100.00;96033.72;5011924;28;24424;-74
2021/09/25 02:07:20;;;;;;;6.82;4.63;;;;;;;9.26;100.00;96037.00;5012188;28;20833;-75
2021/09/25 02:09:49;;;;;;;5.60;5.03;;;;;;;9.28;100.00;96042.09;5012181;28;20758;-75
2021/09/25 02:12:16;;;;;;;6.93;4.85;;;;;;;9.34;100.00;96037.41;5012196;28;20777;-74
2021/09/25 02:14:44;;;;;;;6.88;5.18;;;;;;;9.37;98.29;96046.75;5011562;28;20778;-74
2021/09/25 02:17:11;;;;;;;6.40;5.35;;;;;;;9.31;95.06;96041.94;5011898;28;24966;-74
2021/09/25 02:19:37;;;;;;;5.85;5.22;;;;;;;9.16;97.15;96046.16;5011949;28;24428;-74
2021/09/25 02:22:04;;;;;;;7.53;5.90;;;;;;;9.19;98.36;96048.56;5011723;28;24420;-75
2021/09/25 02:24:30;;;;;;;9.85;6.95;;;;;;;8.99;100.00;96044.47;5011405;28;24425;-73
2021/09/25 02:26:56;;;;;;;8.85;5.82;;;;;;;8.92;100.00;96040.53;5011435;28;25041;-73
2021/09/25 02:29:23;;;;;;;8.30;6.03;;;;;;;8.95;100.00;96040.38;5011405;28;24977;-73
2021/09/25 02:31:51;;;;;;;8.65;5.68;;;;;;;8.88;100.00;96044.19;5011249;28;24432;-73
2021/09/25 02:34:18;;;;;;;6.43;5.30;;;;;;;8.84;100.00;96040.91;5011753;28;20762;-73
2021/09/25 02:36:45;;;;;;;7.38;6.13;;;;;;;8.83;100.00;96033.25;5011278;28;21316;-73
2021/09/25 02:39:11;;;;;;;8.55;6.90;;;;;;;8.81;100.00;96025.56;5011492;28;24428;-73
2021/09/25 02:41:37;;;;;;;20.70;11.57;;;;;;;8.64;100.00;96023.88;5011438;28;24554;-73
2021/09/25 02:44:04;;;;;;;16.17;10.85;;;;;;;8.72;100.00;96013.16;5011212;28;24465;-73
2021/09/25 02:46:31;;;;;;;10.32;7.32;;;;;;;8.88;100.00;96018.34;5011224;28;20778;-73
2021/09/25 02:48:59;;;;;;;11.00;7.22;;;;;;;8.96;100.00;96011.84;5011409;28;24420;-73
2021/09/25 02:51:25;;;;;;;7.93;6.43;;;;;;;8.93;100.00;96006.84;5011070;28;24957;-73
2021/09/25 02:53:51;;;;;;;7.40;6.10;;;;;;;8.88;100.00;96008.84;5011225;28;24456;-73
2021/09/25 02:56:18;;;;;;;9.15;6.68;;;;;;;8.84;100.00;96017.69;5010764;28;24408;-73
2021/09/25 02:58:44;;;;;;;6.53;5.70;;;;;;;8.53;100.00;96012.41;5011048;28;24953;-75
2021/09/25 03:01:11;;;;;;;6.97;5.80;;;;;;;8.64;100.00;96010.09;5011224;28;24490;-75
2021/09/25 03:03:37;;;;;;;10.23;6.35;;;;;;;8.71;100.00;96008.88;5060905;22;20811;-79
2021/09/25 03:06:05;;;;;;;6.60;5.90;;;;;;;8.82;100.00;96009.16;5057441;28;20821;-79
2021/09/25 03:08:31;;;;;;;9.10;5.57;;;;;;;8.86;100.00;96010.69;5057215;28;20824;-79
2021/09/25 03:10:58;;;;;;;8.90;6.47;;;;;;;8.90;100.00;96009.63;5053596;28;20787;-79
2021/09/25 03:13:24;;;;;;;6.47;5.22;;;;;;;8.95;100.00;96010.19;5039606;28;20795;-79
2021/09/25 03:16:00;;;;;;;7.95;5.65;;;;;;;8.95;100.00;96011.94;5038617;28;20769;-80
2021/09/25 03:28:39;;;;;;;5.50;4.70;;;;;;;9.03;100.00;96006.38;5119373;27;24866;-79
2021/09/25 03:31:05;;;;;;;5.38;4.57;;;;;;;9.00;100.00;96006.53;5119890;28;20751;-79
2021/09/25 03:33:31;;;;;;;5.57;4.85;;;;;;;9.03;100.00;96009.78;5102802;28;24438;-78
2021/09/25 03:35:58;;;;;;;6.28;4.88;;;;;;;9.08;100.00;96004.38;5098622;28;24426;-78
2021/09/25 03:38:27;;;;;;;5.30;4.75;;;;;;;9.04;100.00;95998.53;5098823;28;24430;-78
2021/09/25 03:40:54;;;;;;;5.50;4.80;;;;;;;9.12;100.00;95988.66;5099296;28;20765;-78
2021/09/25 03:43:21;;;;;;;8.93;5.40;;;;;;;8.98;100.00;95992.88;5099315;28;24434;-79
2021/09/25 03:45:49;;;;;;;5.13;4.20;;;;;;;8.96;100.00;95998.94;5098594;28;24795;-79
2021/09/25 03:48:15;;;;;;;5.67;4.30;;;;;;;8.81;97.50;95997.16;5098115;28;21177;-77
2021/09/25 03:50:42;;;;;;;4.75;4.35;;;;;;;8.70;97.02;96002.06;5097470;28;24430;-78
2021/09/25 03:53:27;;;;;;;4.40;4.00;;;;;;;8.58;96.98;95989.78;5097445;28;24457;-77
2021/09/25 03:55:53;;;;;;;5.63;4.30;;;;;;;8.40;98.21;96001.88;5088912;28;20650;-76
2021/09/25 03:58:19;;;;;;;5.30;4.72;;;;;;;8.45;100.00;96012.78;5089486;28;24414;-78
2021/09/25 04:00:46;;;;;;;6.55;4.60;;;;;;;8.41;100.00;96000.97;5089290;28;24427;-78
2021/09/25 04:03:14;;;;;;;4.57;4.18;;;;;;;8.44;100.00;96008.56;5088948;28;24437;-78
2021/09/25 04:05:41;;;;;;;4.97;4.13;;;;;;;8.46;100.00;96014.47;5089021;28;21334;-78
2021/09/25 04:08:08;;;;;;;4.55;4.10;;;;;;;8.48;100.00;96005.72;5089434;28;20785;-78
2021/09/25 04:10:34;;;;;;;5.25;4.32;;;;;;;8.51;100.00;96006.50;5089150;28;21304;-78
2021/09/25 04:13:01;;;;;;;8.30;5.80;;;;;;;8.57;98.72;96011.38;5089310;28;24509;-77
2021/09/25 04:15:28;;;;;;;4.80;4.33;;;;;;;8.53;99.71;96013.25;5088933;28;24440;-78
2021/09/25 04:17:54;;;;;;;8.25;5.07;;;;;;;8.53;100.00;96020.16;5088915;28;20794;-78
2021/09/25 04:20:22;;;;;;;4.95;4.45;;;;;;;8.61;100.00;96024.03;5089450;28;24444;-77
2021/09/25 04:22:49;;;;;;;5.18;4.40;;;;;;;8.57;100.00;96019.94;5089062;28;21307;-78
2021/09/25 04:25:15;;;;;;;6.70;5.00;;;;;;;8.55;100.00;96021.75;5088639;28;20776;-78
2021/09/25 04:27:41;;;;;;;5.85;4.40;;;;;;;8.47;100.00;96022.13;5101705;28;20771;-78
2021/09/25 04:30:09;;;;;;;4.65;4.25;;;;;;;8.48;100.00;96028.13;5109249;28;20751;-77
2021/09/25 04:32:36;;;;;;;6.35;4.60;;;;;;;8.51;100.00;96033.16;5108670;28;21164;-79
2021/09/25 04:35:02;;;;;;;6.30;4.30;;;;;;;8.57;100.00;96029.44;5109077;28;20808;-77
2021/09/25 04:37:30;;;;;;;6.88;5.15;;;;;;;8.61;100.00;96021.44;5108740;28;24429;-77
2021/09/25 04:39:56;;;;;;;5.47;4.32;;;;;;;8.57;100.00;96014.78;5095457;28;24410;-77
2021/09/25 04:42:23;;;;;;;5.13;4.60;;;;;;;8.56;100.00;96017.41;5095527;28;24440;-78
2021/09/25 04:50:57;;;;;;;5.90;4.30;;;;;;;8.56;92.70;96017.41;5104679;28;20690;-80
2021/09/25 04:53:25;;;;;;;5.88;4.75;;;;;;;8.55;95.02;96001.09;5105241;28;20756;-78
2021/09/25 04:55:52;;;;;;;6.25;5.10;;;;;;;8.26;99.99;96010.25;5105638;28;20804;-77
2021/09/25 04:58:18;;;;;;;7.38;5.05;;;;;;;8.28;98.03;96008.47;5105081;28;24459;-78
2021/09/25 05:00:45;;;;;;;7.45;6.10;;;;;;;8.08;99.61;96004.28;5105412;28;24433;-78
2021/09/25 05:03:11;;;;;;;8.25;6.18;;;;;;;7.95;100.00;96001.47;5105357;28;24430;-78
2021/09/25 05:05:38;;;;;;;8.23;5.88;;;;;;;7.98;100.00;96003.91;5103852;28;24422;-78
2021/09/25 05:14:27;;;;;;;6.53;5.38;;;;;;;7.95;100.00;96001.47;5104140;28;20666;-77
2021/09/25 05:16:53;;;;;;;8.70;5.93;;;;;;;7.88;100.00;95996.69;5096537;28;24425;-78
2021/09/25 05:19:20;;;;;;;6.10;5.35;;;;;;;7.93;100.00;96012.75;5096407;28;20752;-77
2021/09/25 05:21:47;;;;;;;9.57;6.10;;;;;;;7.96;100.00;96005.72;5096116;28;21236;-77
2021/09/25 05:24:13;;;;;;;7.15;5.55;;;;;;;7.98;100.00;96001.31;5096060;28;24987;-77
2021/09/25 05:26:41;;;;;;;6.00;5.40;;;;;;;7.97;100.00;96002.25;5095712;28;20787;-77
2021/09/25 05:29:08;;;;;;;5.40;4.87;;;;;;;8.03;100.00;96006.25;5096832;28;21221;-77
2021/09/25 05:31:36;;;;;;;6.70;4.75;;;;;;;8.05;100.00;96001.03;5096749;28;20845;-77
2021/09/25 05:34:03;;;;;;;7.78;4.88;;;;;;;8.07;100.00;95996.63;5096003;28;20790;-77
2021/09/25 05:36:29;;;;;;;6.38;5.32;;;;;;;8.16;100.00;95999.59;5085274;28;21110;-77
2021/09/25 05:38:56;;;;;;;6.20;4.80;;;;;;;8.20;100.00;95997.69;5093174;28;24441;-77
2021/09/25 05:41:22;;;;;;;7.60;5.45;;;;;;;8.31;100.00;96005.72;5095636;28;24823;-77
2021/09/25 05:43:51;;;;;;;7.70;5.60;;;;;;;8.24;100.00;96000.03;5095184;28;24830;-77
2021/09/25 05:46:17;;;;;;;7.53;5.85;;;;;;;8.35;100.00;96009.81;5095528;28;20803;-78
2021/09/25 05:48:47;;;;;;;7.85;5.50;;;;;;;8.36;100.00;96003.75;5097800;28;24516;-78
2021/09/25 05:51:14;;;;;;;5.68;5.13;;;;;;;8.37;100.00;96007.16;5098504;28;20789;-78
2021/09/25 05:53:41;;;;;;;5.90;5.10;;;;;;;8.43;100.00;96006.88;5093597;28;21274;-77
2021/09/25 05:56:07;;;;;;;8.67;5.10;;;;;;;8.48;100.00;96018.63;5093969;28;20768;-77
2021/09/25 05:58:34;;;;;;;7.10;5.63;;;;;;;8.41;100.00;96009.53;5094446;28;20828;-79
2021/09/25 06:01:00;;;;;;;7.28;4.75;;;;;;;8.47;100.00;96010.97;5094281;28;20824;-79
2021/09/25 06:03:26;;;;;;;7.70;4.97;;;;;;;8.56;100.00;96007.91;5093994;28;20767;-78
2021/09/25 06:05:54;;;;;;;5.97;4.72;;;;;;;8.57;100.00;96009.59;5093828;28;24818;-79
2021/09/25 06:08:21;;;;;;;4.93;4.50;;;;;;;8.74;100.00;96008.72;5094168;28;20809;-78
2021/09/25 06:10:47;;;;;;;7.45;5.30;;;;;;;8.71;100.00;95998.56;5093650;28;20813;-78
2021/09/25 06:13:13;;;;;;;8.65;5.55;;;;;;;8.82;100.00;96001.41;5094704;28;24445;-78
2021/09/25 06:15:40;;;;;;;7.00;5.97;;;;;;;8.68;100.00;96004.72;5095460;28;24441;-78
2021/09/25 06:18:07;;;;;;;7.60;6.28;;;;;;;8.93;100.00;95996.50;5093795;28;24434;-78
2021/09/25 06:20:33;;;;;;;7.70;6.53;;;;;;;8.90;100.00;96001.88;5093564;28;21167;-78
2021/09/25 06:23:01;;;;;;;9.23;6.93;;;;;;;9.02;100.00;96002.97;5093864;28;20766;-79
2021/09/25 06:25:28;;;;;;;8.23;6.57;;;;;;;9.23;100.00;96003.56;5093427;28;20855;-79
2021/09/25 06:27:54;;;;;;;7.57;6.20;;;;;;;9.45;100.00;96004.09;5093151;28;20790;-79
2021/09/25 06:30:21;;;;;;;6.57;5.78;;;;;;;9.68;100.00;96004.56;5093346;28;20760;-78
2021/09/25 06:32:47;;;;;;;8.93;6.70;;;;;;;9.70;100.00;96005.31;5093575;28;21109;-79
2021/09/25 06:35:15;;;;;;;7.00;6.30;;;;;;;9.74;100.00;96003.38;5093125;28;24426;-77
2021/09/25 06:37:42;;;;;;;7.23;5.90;;;;;;;9.61;100.00;96013.59;5093226;28;24414;-78
2021/09/25 06:40:11;;;;;;;6.68;5.97;;;;;;;9.44;100.00;96012.75;5093491;28;24822;-78
2021/09/25 06:42:38;;;;;;;6.23;5.60;;;;;;;9.60;100.00;96014.47;5093619;28;20820;-78
2021/09/25 06:45:06;;;;;;;10.65;5.65;;;;;;;9.71;100.00;96014.72;5092945;28;24426;-79
2021/09/25 06:47:33;;;;;;;7.07;5.65;;;;;;;9.79;100.00;96009.97;5093041;28;24453;-77
2021/09/25 06:49:59;;;;;;;8.20;5.25;;;;;;;10.14;100.00;96007.97;5091916;28;24529;-77
2021/09/25 06:52:27;;;;;;;6.07;5.40;;;;;;;10.42;100.00;96011.59;5092245;28;24841;-78
2021/09/25 06:54:54;;;;;;;9.18;5.82;;;;;;;10.50;100.00;96012.00;5092101;28;24453;-77
2021/09/25 06:57:22;;;;;;;7.13;6.03;;;;;;;10.53;100.00;96013.53;5092566;28;24438;-77
2021/09/25 06:59:48;;;;;;;8.13;6.03;;;;;;;10.52;100.00;96007.53;5092251;28;24429;-79
2021/09/25 07:02:14;;;;;;;8.35;5.85;;;;;;;10.48;100.00;96008.63;5091581;28;24435;-78
2021/09/25 07:04:41;;;;;;;7.45;6.30;;;;;;;10.47;100.00;96008.75;5091366;28;24930;-77
2021/09/25 07:07:07;;;;;;;9.80;5.63;;;;;;;10.45;100.00;96008.00;5091714;28;24426;-77
2021/09/25 07:09:34;;;;;;;6.70;5.78;;;;;;;10.45;100.00;96011.41;5091384;28;24986;-77
2021/09/25 07:12:00;;;;;;;6.70;6.00;;;;;;;10.64;100.00;96026.69;5092059;28;24495;-77
2021/09/25 07:14:28;;;;;;;8.80;6.03;;;;;;;10.72;100.00;96019.34;5092171;28;24479;-74
2021/09/25 07:16:54;;;;;;;7.82;6.22;;;;;;;10.87;100.00;96022.75;5094329;28;24495;-76
2021/09/25 07:19:21;;;;;;;7.35;5.93;;;;;;;10.93;100.00;96024.97;5093802;28;24414;-76
2021/09/25 07:21:47;;;;;;;6.05;5.43;;;;;;;11.03;100.00;96030.44;5093743;28;24426;-78
2021/09/25 07:24:14;;;;;;;5.97;5.40;;;;;;;11.00;100.00;96033.22;5092019;28;24491;-76
2021/09/25 07:26:41;;;;;;;5.75;5.18;;;;;;;11.12;100.00;96030.72;5090176;28;24483;-76
2021/09/25 07:29:07;;;;;;;5.90;5.30;;;;;;;11.24;100.00;96034.34;5090374;28;24504;-76
2021/09/25 07:31:35;;;;;;;6.30;4.70;;;;;;;11.43;100.00;96030.59;5090265;28;24469;-76
2021/09/25 07:34:02;;;;;;;5.65;5.15;;;;;;;11.64;100.00;96034.44;5090553;28;24414;-75
2021/09/25 07:36:28;;;;;;;5.30;4.80;;;;;;;11.99;100.00;96039.19;5090315;28;24414;-76
2021/09/25 07:38:55;;;;;;;8.80;5.13;;;;;;;12.14;100.00;96038.22;5090504;28;24436;-76
2021/09/25 07:41:21;;;;;;;7.53;5.30;;;;;;;12.20;100.00;96037.81;5090798;28;24515;-76
2021/09/25 07:43:48;;;;;;;6.35;5.00;;;;;;;12.40;100.00;96040.88;5090210;28;24990;-76
2021/09/25 07:46:15;;;;;;;6.28;4.95;;;;;;;12.53;100.00;96036.53;5089968;28;24460;-76
2021/09/25 07:48:42;;;;;;;7.30;4.93;;;;;;;12.79;100.00;96035.63;5090457;28;24446;-77
2021/09/25 07:51:09;;;;;;;9.18;5.05;;;;;;;12.86;97.02;96033.44;5090414;28;24414;-76
2021/09/25 07:53:35;;;;;;;5.68;4.72;;;;;;;13.02;96.43;96030.66;5090289;28;24429;-76
2021/09/25 07:56:02;;;;;;;5.38;4.88;;;;;;;13.15;96.89;96033.22;5090163;28;24423;-72
2021/09/25 07:58:28;;;;;;;5.43;4.63;;;;;;;13.21;95.60;96033.63;5090300;28;24465;-76
2021/09/25 08:00:55;;;;;;;6.13;4.70;;;;;;;13.50;94.82;96029.03;5090496;28;24777;-76
2021/09/25 08:03:21;;;;;;;4.97;4.47;;;;;;;13.71;93.00;96033.66;5089974;28;24971;-76
2021/09/25 08:05:49;;;;;;;5.60;4.70;;;;;;;13.94;93.07;96029.41;5089811;28;24971;-75
2021/09/25 08:08:15;;;;;;;5.95;4.63;;;;;;;14.39;93.90;96027.03;5090004;28;24487;-76
2021/09/25 08:10:42;;;;;;;5.25;4.38;;;;;;;14.58;88.10;96027.34;5090102;28;24406;-77
2021/09/25 08:13:08;;;;;;;7.00;4.65;;;;;;;14.51;88.19;96028.75;5090265;28;24422;-75
2021/09/25 08:15:34;;;;;;;5.00;4.43;;;;;;;14.61;88.89;96021.91;5093906;28;24429;-76
2021/09/25 08:18:01;;;;;;;6.30;5.18;;;;;;;14.68;87.08;96022.25;5094083;28;24475;-76
2021/09/25 08:20:27;;;;;;;9.13;5.68;;;;;;;14.81;87.16;96020.41;5094156;28;24438;-75
2021/09/25 08:22:55;;;;;;;6.03;5.00;;;;;;;14.92;88.06;96022.19;5094311;28;24452;-73
2021/09/25 08:25:22;;;;;;;6.90;4.72;;;;;;;15.16;87.18;96024.69;5093864;28;24538;-74
2021/09/25 08:27:48;;;;;;;6.53;4.82;;;;;;;15.47;85.03;96021.38;5093370;28;24426;-73
2021/09/25 08:30:16;;;;;;;8.48;5.10;;;;;;;15.47;83.91;96023.97;5093651;28;25006;-74
2021/09/25 08:32:42;;;;;;;5.55;4.93;;;;;;;15.54;84.86;96026.94;5087317;28;24434;-75
2021/09/25 08:35:10;;;;;;;8.43;5.95;;;;;;;15.63;84.92;96026.22;5084162;28;24437;-75
2021/09/25 08:37:37;;;;;;;6.07;5.47;;;;;;;15.88;85.13;96024.31;5075879;28;24981;-74
2021/09/25 08:40:08;;;;;;;6.93;5.97;;;;;;;16.31;82.75;96028.66;5093308;28;24799;-76
2021/09/25 08:42:35;;;;;;;6.57;5.53;;;;;;;16.37;82.83;96021.16;5073624;28;24826;-74
2021/09/25 08:45:01;;;;;;;6.28;5.43;;;;;;;16.84;82.60;96013.81;5092778;28;24430;-74
2021/09/25 08:47:28;;;;;;;6.30;5.65;;;;;;;16.89;81.28;96009.00;5073455;28;24434;-74
2021/09/25 08:49:54;;;;;;;6.03;4.72;;;;;;;17.14;82.75;96007.78;5072946;28;24449;-74
2021/09/25 08:52:21;;;;;;;7.40;5.27;;;;;;;17.28;79.67;96008.38;5073063;28;24418;-73
2021/09/25 08:54:47;;;;;;;8.13;5.10;;;;;;;17.22;80.84;96014.97;5082386;28;24437;-75
2021/09/25 08:57:15;;;;;;;8.13;5.20;;;;;;;17.28;80.35;96008.38;5082935;28;25081;-74
2021/09/25 08:59:41;;;;;;;5.40;4.90;;;;;;;17.64;80.00;96009.59;5087745;28;24851;-73
2021/09/25 09:02:13;;;;;;;10.40;6.30;;;;;;;17.88;78.49;96014.53;5108288;22;24406;-73
2021/09/25 09:04:44;;;;;;;7.55;5.18;;;;;;;17.92;79.65;96015.91;5032004;28;24444;-74
2021/09/25 09:07:16;;;;;;;8.90;6.38;;;;;;;17.88;79.15;96019.75;5032925;28;24486;-73
2021/09/25 09:09:43;;;;;;;7.10;5.68;;;;;;;17.78;79.87;96018.91;5034020;28;24443;-72
2021/09/25 09:12:10;;;;;;;8.07;5.72;;;;;;;17.80;80.53;96019.63;5032423;28;24474;-74
2021/09/25 09:14:46;;;;;;;6.90;5.53;;;;;;;18.26;80.45;96021.59;5032751;28;24419;-75
2021/09/25 09:17:15;;;;;;;11.90;6.30;;;;;;;18.43;79.05;96014.84;5032749;28;24512;-75
2021/09/25 09:19:42;;;;;;;7.38;5.72;;;;;;;18.58;77.89;96017.88;5032605;28;24511;-76
2021/09/25 09:22:09;;;;;;;8.07;5.75;;;;;;;18.67;79.16;96014.41;5032858;28;24432;-77
2021/09/25 09:24:44;;;;;;;11.93;6.10;;;;;;;19.07;77.07;96005.50;5032503;28;24474;-77
2021/09/25 09:27:15;;;;;;;7.55;6.43;;;;;;;18.90;77.96;96001.00;5032419;28;24416;-77
2021/09/25 09:29:41;;;;;;;7.28;6.10;;;;;;;18.93;78.17;96004.16;5032423;28;24590;-77
2021/09/25 09:32:12;;;;;;;10.20;6.60;;;;;;;19.12;77.76;96007.69;5032680;28;24435;-77
2021/09/25 09:34:41;;;;;;;7.70;6.32;;;;;;;19.05;78.13;96002.19;5032393;28;24435;-77
2021/09/25 09:37:16;;;;;;;10.40;7.05;;;;;;;18.93;78.03;96001.53;5032542;28;24446;-77
2021/09/25 09:39:43;;;;;;;11.02;6.65;;;;;;;19.15;78.28;96010.06;5032605;28;24503;-77
2021/09/25 09:42:09;;;;;;;9.07;6.57;;;;;;;19.26;76.90;96004.63;5032437;28;24470;-77
2021/09/25 09:44:36;;;;;;;7.80;6.38;;;;;;;19.39;76.54;96001.66;5032024;28;24829;-77
2021/09/25 09:47:06;;;;;;;8.30;5.82;;;;;;;19.74;80.23;95990.47;5032176;28;24432;-77
2021/09/25 09:49:36;;;;;;;7.55;5.60;;;;;;;20.05;74.44;95993.56;5032070;28;24462;-77
2021/09/25 09:52:04;;;;;;;7.03;5.55;;;;;;;20.11;74.96;95986.91;5032499;28;24504;-77
2021/09/25 09:54:33;;;;;;;11.52;6.78;;;;;;;20.05;74.42;95989.13;5031833;28;24469;-77
2021/09/25 09:57:01;;;;;;;8.57;6.28;;;;;;;19.88;75.19;95987.34;5032105;28;24470;-77
2021/09/25 09:59:29;;;;;;;9.05;6.00;;;;;;;20.11;75.25;95984.28;5031770;28;24420;-77
2021/09/25 10:01:55;;;;;;;6.72;5.60;;;;;;;19.95;74.54;95979.66;5031747;28;24558;-77
2021/09/25 10:04:22;;;;;;;5.68;4.90;;;;;;;20.08;75.74;95968.78;5031757;28;24431;-77
2021/09/25 10:06:52;;;;;;;6.72;5.55;;;;;;;20.34;75.06;95974.94;5031839;28;24419;-77
2021/09/25 10:09:20;;;;;;;7.35;5.72;;;;;;;20.82;73.38;95972.88;5031859;28;24538;-77
2021/09/25 10:11:52;;;;;;;5.88;4.50;;;;;;;21.26;70.37;95976.25;5031856;28;24450;-78
2021/09/25 10:14:21;;;;;;;9.35;5.05;;;;;;;21.52;71.03;95972.78;5031779;28;24450;-77
2021/09/25 10:16:48;;;;;;;5.78;4.80;;;;;;;21.50;68.02;95973.72;5031579;28;24450;-77
2021/09/25 10:19:17;;;;;;;8.20;4.73;;;;;;;21.78;68.34;95975.31;5031669;28;24862;-77
2021/09/25 10:21:46;;;;;;;5.28;4.47;;;;;;;21.96;70.69;95974.22;5031456;28;24511;-77
2021/09/25 10:24:19;;;;;;;4.50;4.10;;;;;;;21.65;67.03;95968.69;5031444;28;24435;-77
2021/09/25 10:26:47;;;;;;;8.93;4.47;;;;;;;21.40;68.89;95967.78;5031246;28;24478;-77
2021/09/25 10:29:18;;;;;;;6.00;4.75;;;;;;;21.74;69.97;95959.81;5031416;28;24805;-77
2021/09/25 10:31:45;;;;;;;4.45;3.97;;;;;;;21.80;69.08;95958.34;5031962;28;24416;-76
2021/09/25 10:34:15;;;;;;;7.00;4.20;;;;;;;21.99;68.40;95950.16;5031706;28;24447;-76
2021/09/25 10:36:44;;;;;;;7.90;4.27;;;;;;;21.53;67.66;95956.78;5031110;28;24518;-76
2021/09/25 10:39:33;;;;;;;5.45;4.13;;;;;;;21.31;68.82;95952.88;5031371;28;24412;-76
2021/09/25 10:42:09;;;;;;;4.83;4.33;;;;;;;21.37;68.30;95952.28;5031517;28;24899;-76
2021/09/25 10:44:43;;;;;;;4.30;3.70;;;;;;;21.70;68.48;95953.22;5031213;28;24551;-76
2021/09/25 10:47:12;;;;;;;4.70;3.63;;;;;;;22.12;65.71;95946.22;5031582;28;24427;-76
2021/09/25 10:49:47;;;;;;;4.33;3.47;;;;;;;22.33;65.21;95941.31;5031779;28;24531;-76
2021/09/25 10:52:16;;;;;;;5.82;3.53;;;;;;;21.92;65.92;95941.25;5031726;28;24494;-76
2021/09/25 10:54:44;;;;;;;4.38;3.85;;;;;;;21.79;66.12;95945.34;5031316;28;24492;-76
2021/09/25 10:57:16;;;;;;;4.95;3.90;;;;;;;21.70;66.64;95939.22;5030285;28;24435;-77
2021/09/25 11:00:18;;;;;;;4.82;3.53;;;;;;;21.59;64.45;95947.44;5032694;28;25069;-76
2021/09/25 11:02:44;;;;;;;3.42;2.90;;;;;;;21.86;65.26;95944.53;5031817;28;24443;-77
2021/09/25 11:05:15;;;;;;;4.63;3.30;;;;;;;22.61;66.88;95941.78;5032754;28;24424;-77
2021/09/25 11:07:43;;;;;;;4.20;3.40;;;;;;;22.74;68.43;95946.56;5034767;28;24793;-77
2021/09/25 11:10:11;;;;;;;4.10;3.53;;;;;;;22.41;64.93;95946.59;5034729;28;24481;-77
2021/09/25 11:12:48;;;;;;;8.97;4.20;;;;;;;22.06;65.79;95944.22;5034142;28;24520;-77
2021/09/25 11:15:32;;;;;;;5.60;3.83;;;;;;;21.89;65.83;95946.03;5033246;28;24509;-76
2021/09/25 11:18:27;;;;;;;4.55;3.83;;;;;;;21.86;65.34;95939.25;5032387;28;24964;-75
2021/09/25 11:21:03;;;;;;;3.40;3.10;;;;;;;21.51;66.05;95937.69;5030469;28;24451;-76
2021/09/25 11:23:42;;;;;;;4.07;3.50;;;;;;;21.50;65.89;95936.03;5030476;28;25146;-76
2021/09/25 11:26:10;;;;;;;4.63;3.70;;;;;;;21.41;66.39;95937.81;5030192;28;24487;-76
2021/09/25 11:28:37;;;;;;;5.50;4.00;;;;;;;21.34;67.24;95942.06;5030647;28;24538;-76
2021/09/25 11:31:07;;;;;;;4.03;3.35;;;;;;;21.37;66.35;95933.84;5030490;28;24434;-75
2021/09/25 11:33:34;;;;;;;3.55;3.10;;;;;;;21.37;66.98;95940.94;5030362;28;24431;-75
2021/09/25 11:36:07;;;;;;;4.70;3.88;;;;;;;21.35;66.79;95932.34;5030164;28;24474;-75
2021/09/25 11:38:33;;;;;;;4.00;3.30;;;;;;;21.42;65.40;95933.38;5030190;28;24841;-74
2021/09/25 11:41:01;;;;;;;3.47;3.03;;;;;;;21.48;62.28;95919.56;5030407;28;24949;-75
2021/09/25 11:43:33;;;;;;;3.90;3.55;;;;;;;21.54;63.59;95921.53;5030071;28;24987;-75
2021/09/25 11:45:59;;;;;;;6.97;3.45;;;;;;;21.46;63.51;95922.34;5030191;28;24432;-75
2021/09/25 11:48:29;;;;;;;5.50;3.88;;;;;;;21.46;65.31;95924.97;5031026;28;24833;-75
2021/09/25 11:50:57;;;;;;;8.00;4.28;;;;;;;21.57;64.96;95923.84;5028854;28;24495;-76
2021/09/25 11:53:27;;;;;;;4.63;3.17;;;;;;;21.78;65.42;95919.97;5033266;28;24439;-76
2021/09/25 11:55:54;;;;;;;3.00;2.80;;;;;;;21.92;61.42;95921.97;5033951;28;24828;-75
2021/09/25 11:58:22;;;;;;;3.15;2.85;;;;;;;21.95;61.31;95911.94;5033113;28;24435;-75